createdAt,value
2019-03-23T00:00:40.227Z,7.20
2019-03-23T00:05:31.122Z,7.10
2019-03-23T00:10:22.009Z,7.10
2019-03-23T00:15:12.904Z,7.60
2019-03-23T00:20:04.720Z,7.70
2019-03-23T00:24:55.597Z,7.50
2019-03-23T00:29:47.246Z,7.00
2019-03-23T00:34:38.139Z,7.00
2019-03-23T00:39:29.064Z,6.90
2019-03-23T00:44:19.959Z,6.80
2019-03-23T00:49:10.845Z,6.90
2019-03-23T00:54:01.734Z,7.50
2019-03-23T00:58:53.370Z,7.20
2019-03-23T01:03:45.126Z,7.00
2019-03-23T01:08:36.023Z,6.90
2019-03-23T01:13:28.361Z,6.60
2019-03-23T01:18:19.986Z,6.50
2019-03-23T01:23:10.872Z,6.50
2019-03-23T01:28:01.753Z,6.80
2019-03-23T01:32:53.384Z,7.10
2019-03-23T01:37:45.013Z,6.90
2019-03-23T01:42:36.665Z,6.70
2019-03-23T01:47:27.559Z,6.70
2019-03-23T01:52:18.448Z,6.50
2019-03-23T01:57:09.387Z,6.40
2019-03-23T02:02:00.301Z,6.30
2019-03-23T02:06:51.202Z,6.80
2019-03-23T02:11:42.097Z,7.20
2019-03-23T02:16:32.993Z,7.10
2019-03-23T02:21:23.893Z,6.90
2019-03-23T02:26:15.542Z,6.50
2019-03-23T02:31:07.561Z,6.40
2019-03-23T02:35:58.113Z,6.40
2019-03-23T02:40:49.015Z,6.50
2019-03-23T02:45:39.931Z,7.00
2019-03-23T02:50:31.577Z,6.90
2019-03-23T02:55:22.491Z,6.90
2019-03-23T03:00:13.402Z,6.70
2019-03-23T03:05:05.042Z,6.30
2019-03-23T03:09:56.694Z,6.10
2019-03-23T03:14:47.595Z,6.10
2019-03-23T03:19:39.243Z,6.80
2019-03-23T03:24:30.167Z,6.80
2019-03-23T03:29:21.075Z,6.80
2019-03-23T03:34:11.982Z,6.60
2019-03-23T03:39:03.620Z,6.10
2019-03-23T03:43:54.523Z,6.10
2019-03-23T03:48:46.179Z,5.80
2019-03-23T03:53:37.111Z,5.80
2019-03-23T03:58:28.055Z,6.00
2019-03-23T04:03:18.959Z,6.60
2019-03-23T04:08:11.705Z,6.60
2019-03-23T04:13:00.814Z,6.40
2019-03-23T04:17:51.725Z,6.20
2019-03-23T04:22:42.632Z,5.90
2019-03-23T04:27:33.552Z,5.80
2019-03-23T04:32:24.453Z,5.70
2019-03-23T04:37:15.365Z,5.80
2019-03-23T04:42:06.283Z,6.30
2019-03-23T04:46:57.189Z,6.30
2019-03-23T04:51:48.825Z,5.80
2019-03-23T04:56:40.469Z,5.60
2019-03-23T05:01:31.373Z,5.60
2019-03-23T05:06:23.014Z,5.30
2019-03-23T05:11:14.657Z,5.30
2019-03-23T05:16:06.293Z,5.80
2019-03-23T05:20:57.924Z,5.90
2019-03-23T05:25:49.565Z,5.70
2019-03-23T05:30:41.242Z,5.50
2019-03-23T05:35:32.135Z,5.50
2019-03-23T05:40:23.056Z,5.30
2019-03-23T05:45:13.962Z,5.20
2019-03-23T05:50:04.853Z,5.00
2019-03-23T05:54:55.761Z,5.00
2019-03-23T05:59:46.675Z,5.40
2019-03-23T06:04:37.581Z,5.80
2019-03-23T06:09:28.487Z,5.70
2019-03-23T06:14:19.378Z,5.40
2019-03-23T06:19:10.285Z,5.30
2019-03-23T06:24:01.937Z,5.10
2019-03-23T06:28:52.892Z,5.10
2019-03-23T06:33:43.804Z,5.10
2019-03-23T06:38:34.747Z,5.60
2019-03-23T06:43:25.653Z,6.20
2019-03-23T06:48:16.553Z,6.20
2019-03-23T06:53:07.467Z,6.00
2019-03-23T06:57:58.388Z,5.90
2019-03-23T07:02:49.281Z,5.90
2019-03-23T07:07:40.193Z,5.90
2019-03-23T07:12:31.847Z,6.20
2019-03-23T07:17:22.744Z,6.10
2019-03-23T07:22:14.385Z,7.10
2019-03-23T07:27:05.286Z,7.10
2019-03-23T07:32:05.407Z,7.00
2019-03-23T07:36:47.859Z,7.00
2019-03-23T07:41:38.767Z,7.00
2019-03-23T07:46:30.445Z,7.10
2019-03-23T07:51:21.350Z,7.10
2019-03-23T07:56:12.248Z,7.30
2019-03-23T08:01:03.890Z,8.40
2019-03-23T08:05:54.793Z,8.30
2019-03-23T08:10:46.437Z,8.40
2019-03-23T08:15:37.356Z,8.40
2019-03-23T08:20:28.265Z,8.50
2019-03-23T08:25:19.908Z,8.70
2019-03-23T08:30:11.555Z,9.00
2019-03-23T08:35:02.444Z,9.00
2019-03-23T08:39:54.103Z,10.10
2019-03-23T08:44:45.017Z,10.00
2019-03-23T08:49:36.253Z,10.10
2019-03-23T08:54:27.214Z,10.10
2019-03-23T08:59:18.242Z,10.30
2019-03-23T09:04:09.165Z,10.40
2019-03-23T09:09:00.114Z,10.60
2019-03-23T09:13:51.765Z,11.90
2019-03-23T09:18:42.714Z,11.90
2019-03-23T09:23:33.614Z,12.00
2019-03-23T09:28:24.531Z,12.00
2019-03-23T09:33:15.449Z,12.00
2019-03-23T09:38:06.358Z,12.10
2019-03-23T09:42:57.330Z,12.30
2019-03-23T09:47:48.349Z,12.70
2019-03-23T09:52:39.268Z,13.30
2019-03-23T09:57:30.181Z,13.30
2019-03-23T10:02:21.144Z,13.30
2019-03-23T10:07:12.789Z,13.40
2019-03-23T10:12:03.688Z,13.40
2019-03-23T10:16:55.341Z,14.10
2019-03-23T10:21:46.228Z,14.10
2019-03-23T10:26:37.139Z,14.40
2019-03-23T10:31:28.059Z,14.40
2019-03-23T10:36:18.983Z,14.40
2019-03-23T10:41:09.886Z,14.40
2019-03-23T10:46:00.785Z,14.50
2019-03-23T10:50:51.689Z,14.90
2019-03-23T10:55:42.630Z,15.60
2019-03-23T11:00:33.553Z,15.80
2019-03-23T11:05:24.452Z,15.80
2019-03-23T11:10:15.356Z,16.00
2019-03-23T11:15:06.313Z,16.20
2019-03-23T11:19:58.487Z,16.80
2019-03-23T11:24:48.907Z,17.80
2019-03-23T11:29:40.605Z,18.00
2019-03-23T11:34:31.566Z,17.90
2019-03-23T11:39:23.322Z,18.50
2019-03-23T11:44:14.224Z,18.40
2019-03-23T11:49:05.982Z,19.60
2019-03-23T11:53:56.926Z,19.60
2019-03-23T11:58:47.839Z,19.80
2019-03-23T12:03:38.753Z,19.90
2019-03-23T12:08:29.640Z,19.90
2019-03-23T12:13:21.277Z,19.80
2019-03-23T12:18:12.201Z,19.80
2019-03-23T12:23:03.101Z,20.00
2019-03-23T12:27:54.764Z,19.90
2019-03-23T12:32:45.757Z,19.90
2019-03-23T12:37:37.406Z,20.00
2019-03-23T12:42:28.318Z,20.00
2019-03-23T12:47:19.971Z,20.60
2019-03-23T12:52:10.921Z,20.60
2019-03-23T12:57:01.815Z,20.60
2019-03-23T13:01:52.734Z,20.40
2019-03-23T13:06:43.751Z,20.10
2019-03-23T13:11:35.521Z,19.90
2019-03-23T13:16:25.563Z,19.90
2019-03-23T13:21:17.211Z,19.50
2019-03-23T13:26:08.111Z,19.40
2019-03-23T13:30:59.744Z,19.00
2019-03-23T13:35:51.402Z,19.10
2019-03-23T13:40:42.308Z,19.10
2019-03-23T13:45:42.402Z,18.90
2019-03-23T13:50:24.852Z,18.90
2019-03-23T13:55:24.438Z,18.20
2019-03-23T14:00:15.337Z,18.20
2019-03-23T14:05:15.632Z,18.20
2019-03-23T14:09:57.161Z,18.40
2019-03-23T14:14:48.072Z,18.30
2019-03-23T14:19:38.976Z,18.00
2019-03-23T14:24:30.628Z,17.70
2019-03-23T14:29:21.602Z,17.70
2019-03-23T14:34:12.528Z,18.10
2019-03-23T14:39:03.451Z,18.30
2019-03-23T14:43:54.369Z,18.20
2019-03-23T14:48:46.014Z,17.80
2019-03-23T14:53:37.671Z,17.90
2019-03-23T14:58:28.568Z,17.90
2019-03-23T15:03:20.201Z,18.00
2019-03-23T15:08:12.129Z,18.00
2019-03-23T15:13:03.063Z,17.60
2019-03-23T15:17:54.718Z,16.90
2019-03-23T15:22:45.634Z,16.90
2019-03-23T15:27:37.291Z,17.30
2019-03-23T15:32:28.198Z,17.30
2019-03-23T15:37:19.097Z,17.00
2019-03-23T15:42:10.763Z,16.30
2019-03-23T15:47:01.721Z,16.30
2019-03-23T15:51:52.649Z,16.10
2019-03-23T15:56:43.554Z,16.40
2019-03-23T16:01:34.462Z,16.40
2019-03-23T16:06:25.368Z,16.10
2019-03-23T16:11:16.333Z,15.70
2019-03-23T16:16:08.054Z,15.40
2019-03-23T16:20:58.977Z,15.40
2019-03-23T16:25:49.886Z,15.70
2019-03-23T16:30:40.786Z,15.60
2019-03-23T16:35:31.760Z,15.30
2019-03-23T16:40:22.721Z,14.90
2019-03-23T16:45:13.643Z,14.60
2019-03-23T16:50:04.546Z,14.70
2019-03-23T16:54:55.447Z,15.00
2019-03-23T16:59:46.394Z,14.90
2019-03-23T17:04:37.343Z,14.60
2019-03-23T17:09:28.253Z,14.30
2019-03-23T17:14:19.918Z,14.30
2019-03-23T17:19:10.906Z,14.30
2019-03-23T17:24:01.926Z,14.60
2019-03-23T17:28:53.013Z,14.30
2019-03-23T17:33:45.713Z,14.00
2019-03-23T17:38:36.972Z,13.70
2019-03-23T17:43:28.017Z,13.50
2019-03-23T17:48:19.725Z,14.00
2019-03-23T17:53:11.499Z,13.80
2019-03-23T17:58:05.196Z,13.50
2019-03-23T18:03:02.916Z,13.50
2019-03-23T18:07:55.177Z,13.20
2019-03-23T18:12:46.376Z,13.00
2019-03-23T18:17:37.313Z,13.30
2019-03-23T18:22:46.033Z,13.60
2019-03-23T18:27:37.135Z,13.40
2019-03-23T18:32:28.121Z,13.00
2019-03-23T18:37:20.367Z,12.80
2019-03-23T18:42:12.037Z,12.80
2019-03-23T18:47:03.714Z,13.20
2019-03-23T18:51:55.639Z,13.20
2019-03-23T18:56:47.400Z,13.10
2019-03-23T19:01:39.128Z,12.80
2019-03-23T19:06:30.260Z,12.60
2019-03-23T19:11:21.411Z,12.40
2019-03-23T19:16:12.671Z,12.50
2019-03-23T19:21:04.503Z,12.80
2019-03-23T19:25:55.474Z,12.80
2019-03-23T19:30:46.560Z,12.50
2019-03-23T19:35:38.466Z,12.10
2019-03-23T19:40:29.613Z,12.10
2019-03-23T19:45:21.495Z,12.00
2019-03-23T19:50:12.717Z,12.30
2019-03-23T19:55:05.227Z,12.40
2019-03-23T19:59:56.192Z,12.30
2019-03-23T20:04:48.041Z,11.90
2019-03-23T20:09:39.270Z,11.90
2019-03-23T20:14:30.284Z,11.70
2019-03-23T20:19:21.204Z,11.90
2019-03-23T20:24:12.356Z,12.40
2019-03-23T20:29:04.010Z,12.00
2019-03-23T20:33:54.920Z,12.00
2019-03-23T20:38:46.579Z,11.50
2019-03-23T20:43:37.473Z,11.50
2019-03-23T20:48:29.123Z,11.90
2019-03-23T20:53:20.028Z,11.80
2019-03-23T20:58:10.937Z,12.00
2019-03-23T21:03:02.577Z,11.60
2019-03-23T21:07:54.251Z,11.30
2019-03-23T21:12:45.225Z,11.30
2019-03-23T21:17:36.863Z,11.20
2019-03-23T21:22:28.513Z,11.70
2019-03-23T21:27:19.421Z,11.70
2019-03-23T21:32:11.065Z,11.30
2019-03-23T21:37:02.780Z,11.10
2019-03-23T21:41:53.694Z,11.00
2019-03-23T21:46:44.584Z,10.80
2019-03-23T21:51:41.698Z,10.70
2019-03-23T21:56:34.431Z,11.20
2019-03-23T22:01:25.364Z,11.20
2019-03-23T22:06:16.279Z,11.00
2019-03-23T22:11:07.176Z,10.70
2019-03-23T22:15:58.078Z,10.50
2019-03-23T22:20:48.982Z,10.20
2019-03-23T22:25:39.895Z,10.10
2019-03-23T22:30:31.095Z,10.40
2019-03-23T22:35:22.742Z,10.40
2019-03-23T22:40:14.391Z,10.10
2019-03-23T22:45:06.281Z,10.10
2019-03-23T22:49:57.188Z,9.80
2019-03-23T22:54:48.119Z,9.60
2019-03-23T22:59:39.021Z,9.60
2019-03-23T23:04:29.931Z,10.10
2019-03-23T23:09:20.901Z,10.10
2019-03-23T23:14:12.554Z,9.50
2019-03-23T23:19:03.449Z,9.50
2019-03-23T23:24:09.411Z,9.30
2019-03-23T23:29:00.322Z,9.10
2019-03-23T23:33:51.236Z,9.30
2019-03-23T23:38:42.893Z,9.60
2019-03-23T23:43:34.559Z,9.30
2019-03-23T23:48:25.449Z,9.30
2019-03-23T23:53:17.222Z,8.80
2019-03-23T23:58:08.121Z,8.80
